Time,TemperatureF,DewpointF,PressureIn,WindDirection,WindDirectionDegrees,WindSpeedMPH,WindSpeedGustMPH,Humidity,HourlyPrecipIn,Conditions,Clouds,dailyrainin,SolarRadiationWatts/m^2,SoftwareType,DateUTC
2013-05-26 00:00:00,55.2,50.4,30.07,NW,317,16.0,16.0,84,0.00,,,0.00,0,Wunderground v.1.15,2013-05-26 07:00:00,
2013-05-26 00:05:00,55.0,50.3,30.08,NW,304,16.0,16.0,84,0.00,,,0.00,0,Wunderground v.1.15,2013-05-26 07:05:00,
2013-05-26 00:14:00,54.8,50.4,30.08,NW,321,15.0,18.0,85,0.00,,,0.00,0,Wunderground v.1.15,2013-05-26 07:14:00,
2013-05-26 00:19:00,54.7,50.3,30.08,WNW,300,15.0,15.0,85,0.00,,,0.00,0,Wunderground v.1.15,2013-05-26 07:19:00,
2013-05-26 00:24:00,54.6,50.5,30.08,NNW,336,14.0,15.0,86,0.00,,,0.00,0,Wunderground v.1.15,2013-05-26 07:24:00,
2013-05-26 00:30:00,54.8,50.7,30.08,NW,317,12.0,12.0,86,0.00,,,0.00,0,Wunderground v.1.15,2013-05-26 07:30:00,
2013-05-26 00:39:00,54.9,50.8,30.08,West,259,7.0,7.0,86,0.00,,,0.00,0,Wunderground v.1.15,2013-05-26 07:39:00,
2013-05-26 00:44:00,55.1,51.0,30.08,WSW,255,4.0,7.0,86,0.00,,,0.00,0,Wunderground v.1.15,2013-05-26 07:44:00,
2013-05-26 00:54:00,55.4,51.3,30.08,SW,218,4.0,5.0,86,0.00,,,0.00,0,Wunderground v.1.15,2013-05-26 07:54:00,
2013-05-26 00:59:00,55.8,52.0,30.08,SSW,203,6.0,7.0,87,0.00,,,0.00,0,Wunderground v.1.15,2013-05-26 07:59:00,
2013-05-26 01:05:00,56.2,52.4,30.08,West,261,7.0,13.0,87,0.00,,,0.00,0,Wunderground v.1.15,2013-05-26 08:05:00,
2013-05-26 01:14:00,56.2,51.7,30.08,SSW,208,3.0,7.0,85,0.00,,,0.00,0,Wunderground v.1.15,2013-05-26 08:14:00,
2013-05-26 01:19:00,56.3,52.2,30.08,SSW,202,2.0,5.0,86,0.00,,,0.00,0,Wunderground v.1.15,2013-05-26 08:19:00,
2013-05-26 01:29:00,56.4,51.9,30.08,NW,325,3.0,3.0,85,0.00,,,0.00,0,Wunderground v.1.15,2013-05-26 08:29:00,
2013-05-26 01:34:00,56.5,52.0,30.08,East,99,2.0,3.0,85,0.00,,,0.00,0,Wunderground v.1.15,2013-05-26 08:34:00,
2013-05-26 01:40:00,56.6,52.1,30.08,NW,304,3.0,3.0,85,0.00,,,0.00,0,Wunderground v.1.15,2013-05-26 08:40:00,
2013-05-26 01:49:00,57.0,52.5,30.08,West,280,3.0,3.0,85,0.00,,,0.00,0,Wunderground v.1.15,2013-05-26 08:49:00,
2013-05-26 01:55:00,56.9,52.4,30.08,NW,305,3.0,3.0,85,0.00,,,0.00,0,Wunderground v.1.15,2013-05-26 08:55:00,
2013-05-26 02:04:00,57.1,52.3,30.08,NW,305,5.0,6.0,84,0.00,,,0.00,0,Wunderground v.1.15,2013-05-26 09:04:00,
2013-05-26 02:10:00,57.0,52.2,30.08,NNW,333,5.0,9.0,84,0.00,,,0.00,0,Wunderground v.1.15,2013-05-26 09:10:00,
2013-05-26 02:19:00,57.1,52.3,30.08,NNW,333,8.0,10.0,84,0.00,,,0.00,0,Wunderground v.1.15,2013-05-26 09:19:00,
2013-05-26 02:25:00,57.2,52.4,30.08,NW,315,8.0,10.0,84,0.00,,,0.00,0,Wunderground v.1.15,2013-05-26 09:25:00,
2013-05-26 02:34:00,57.3,52.5,30.08,NNW,332,4.0,7.0,84,0.00,,,0.00,0,Wunderground v.1.15,2013-05-26 09:34:00,
2013-05-26 02:40:00,57.4,52.6,30.08,WNW,301,2.0,5.0,84,0.00,,,0.00,0,Wunderground v.1.15,2013-05-26 09:40:00,
2013-05-26 02:49:00,57.5,52.7,30.08,West,265,4.0,4.0,84,0.00,,,0.00,0,Wunderground v.1.15,2013-05-26 09:49:00,
2013-05-26 02:59:00,57.6,52.8,30.08,NW,318,6.0,10.0,84,0.00,,,0.00,0,Wunderground v.1.15,2013-05-26 09:59:00,
2013-05-26 03:04:00,57.5,53.0,30.08,NW,321,9.0,13.0,85,0.00,,,0.00,0,Wunderground v.1.15,2013-05-26 10:04:00,
2013-05-26 03:09:00,57.5,53.0,30.08,WNW,299,10.0,10.0,85,0.00,,,0.00,0,Wunderground v.1.15,2013-05-26 10:09:00,
2013-05-26 03:19:00,57.4,52.9,30.08,WNW,297,6.0,7.0,85,0.00,,,0.00,0,Wunderground v.1.15,2013-05-26 10:19:00,
2013-05-26 03:25:00,57.3,53.1,30.08,NW,312,5.0,8.0,86,0.00,,,0.00,0,Wunderground v.1.15,2013-05-26 10:25:00,
2013-05-26 03:34:00,57.2,53.0,30.08,WNW,299,10.0,11.0,86,0.00,,,0.00,0,Wunderground v.1.15,2013-05-26 10:34:00,
2013-05-26 03:39:00,57.1,53.0,30.08,NW,321,9.0,9.0,86,0.00,,,0.00,0,Wunderground v.1.15,2013-05-26 10:39:00,
2013-05-26 03:49:00,57.0,53.2,30.08,NW,307,8.0,8.0,87,0.00,,,0.00,0,Wunderground v.1.15,2013-05-26 10:49:00,
2013-05-26 03:54:00,57.1,53.3,30.08,WNW,299,8.0,11.0,87,0.00,,,0.00,0,Wunderground v.1.15,2013-05-26 10:54:00,
2013-05-26 04:04:00,57.1,53.3,30.08,NW,318,7.0,9.0,87,0.00,,,0.00,0,Wunderground v.1.15,2013-05-26 11:04:00,
2013-05-26 04:09:00,57.0,53.2,30.08,NW,305,7.0,11.0,87,0.00,,,0.00,0,Wunderground v.1.15,2013-05-26 11:09:00,
2013-05-26 04:19:00,56.5,53.0,30.08,WNW,288,7.0,7.0,88,0.00,,,0.00,0,Wunderground v.1.15,2013-05-26 11:19:00,
2013-05-26 04:24:00,56.2,52.7,30.08,West,275,6.0,8.0,88,0.00,,,0.00,0,Wunderground v.1.15,2013-05-26 11:24:00,
2013-05-26 04:34:00,55.3,52.1,30.08,West,268,7.0,7.0,89,0.00,,,0.00,0,Wunderground v.1.15,2013-05-26 11:34:00,
2013-05-26 04:39:00,55.1,52.2,30.08,West,279,6.0,9.0,90,0.00,,,0.00,0,Wunderground v.1.15,2013-05-26 11:39:00,
2013-05-26 04:49:00,54.9,52.3,30.09,WNW,282,5.0,5.0,91,0.00,,,0.00,0,Wunderground v.1.15,2013-05-26 11:49:00,
2013-05-26 04:54:00,54.9,52.3,30.09,West,274,5.0,8.0,91,0.00,,,0.00,0,Wunderground v.1.15,2013-05-26 11:54:00,
2013-05-26 05:00:00,54.8,52.2,30.09,West,275,4.0,4.0,91,0.00,,,0.00,0,Wunderground v.1.15,2013-05-26 12:00:00,
2013-05-26 05:09:00,54.8,52.2,30.09,West,276,1.0,1.0,91,0.00,,,0.00,0,Wunderground v.1.15,2013-05-26 12:09:00,
2013-05-26 05:15:00,54.8,52.2,30.09,West,276,1.0,2.0,91,0.00,,,0.00,0,Wunderground v.1.15,2013-05-26 12:15:00,
2013-05-26 05:24:00,54.9,52.3,30.09,West,275,3.0,5.0,91,0.00,,,0.00,0,Wunderground v.1.15,2013-05-26 12:24:00,
2013-05-26 05:30:00,54.9,52.6,30.09,West,272,3.0,4.0,92,0.00,,,0.00,0,Wunderground v.1.15,2013-05-26 12:30:00,
2013-05-26 05:39:00,54.9,52.3,30.10,NW,309,3.0,3.0,91,0.00,,,0.00,0,Wunderground v.1.15,2013-05-26 12:39:00,
2013-05-26 05:44:00,55.1,52.5,30.09,WNW,303,4.0,6.0,91,0.00,,,0.00,0,Wunderground v.1.15,2013-05-26 12:44:00,
2013-05-26 05:50:00,55.2,52.6,30.10,WNW,282,5.0,5.0,91,0.00,,,0.00,0,Wunderground v.1.15,2013-05-26 12:50:00,
2013-05-26 05:59:00,55.1,52.5,30.10,West,274,4.0,4.0,91,0.00,,,0.00,5,Wunderground v.1.15,2013-05-26 12:59:00,
2013-05-26 06:05:00,55.1,52.5,30.10,West,277,3.0,7.0,91,0.00,,,0.00,9,Wunderground v.1.15,2013-05-26 13:05:00,
2013-05-26 06:14:00,55.0,52.4,30.10,West,281,2.0,4.0,91,0.00,,,0.00,19,Wunderground v.1.15,2013-05-26 13:14:00,
2013-05-26 06:19:00,55.1,52.5,30.10,West,280,1.0,1.0,91,0.00,,,0.00,25,Wunderground v.1.15,2013-05-26 13:19:00,
2013-05-26 06:29:00,55.2,52.6,30.11,West,280,1.0,3.0,91,0.00,,,0.00,30,Wunderground v.1.15,2013-05-26 13:29:00,
2013-05-26 06:34:00,55.3,52.7,30.11,NW,305,3.0,6.0,91,0.00,,,0.00,44,Wunderground v.1.15,2013-05-26 13:34:00,
2013-05-26 06:44:00,55.6,52.7,30.11,NW,317,5.0,7.0,90,0.00,,,0.00,72,Wunderground v.1.15,2013-05-26 13:44:00,
2013-05-26 06:49:00,55.7,52.8,30.11,NW,305,5.0,5.0,90,0.00,,,0.00,72,Wunderground v.1.15,2013-05-26 13:49:00,
2013-05-26 06:59:00,55.8,52.9,30.11,WNW,288,3.0,4.0,90,0.00,,,0.00,105,Wunderground v.1.15,2013-05-26 13:59:00,
2013-05-26 07:04:00,56.0,52.8,30.12,WNW,297,3.0,4.0,89,0.00,,,0.00,65,Wunderground v.1.15,2013-05-26 14:04:00,
2013-05-26 07:10:00,56.1,52.9,30.12,WNW,302,3.0,3.0,89,0.00,,,0.00,135,Wunderground v.1.15,2013-05-26 14:10:00,
2013-05-26 07:19:00,56.6,53.1,30.12,NW,317,6.0,6.0,88,0.00,,,0.00,244,Wunderground v.1.15,2013-05-26 14:19:00,
2013-05-26 07:29:00,56.9,53.1,30.12,NNW,332,7.0,7.0,87,0.00,,,0.00,225,Wunderground v.1.15,2013-05-26 14:29:00,
2013-05-26 07:34:00,57.0,53.2,30.12,NW,315,7.0,7.0,87,0.00,,,0.00,221,Wunderground v.1.15,2013-05-26 14:34:00,
2013-05-26 07:39:00,57.0,52.9,30.12,West,265,7.0,7.0,86,0.00,,,0.00,239,Wunderground v.1.15,2013-05-26 14:39:00,
2013-05-26 07:49:00,57.0,53.2,30.12,NNW,330,6.0,6.0,87,0.00,,,0.00,285,Wunderground v.1.15,2013-05-26 14:49:00,
2013-05-26 07:54:00,57.5,53.3,30.13,NNW,345,5.0,6.0,86,0.00,,,0.00,204,Wunderground v.1.15,2013-05-26 14:54:00,
2013-05-26 08:04:00,57.5,53.0,30.13,WNW,291,4.0,5.0,85,0.00,,,0.00,346,Wunderground v.1.15,2013-05-26 15:04:00,
2013-05-26 08:09:00,57.6,53.1,30.13,NNW,327,3.0,3.0,85,0.00,,,0.00,135,Wunderground v.1.15,2013-05-26 15:09:00,
2013-05-26 08:14:00,57.6,53.1,30.13,NW,322,5.0,11.0,85,0.00,,,0.00,308,Wunderground v.1.15,2013-05-26 15:14:00,
2013-05-26 08:24:00,57.7,52.9,30.13,WNW,302,8.0,13.0,84,0.00,,,0.00,357,Wunderground v.1.15,2013-05-26 15:24:00,
2013-05-26 08:29:00,58.0,52.9,30.13,WNW,303,8.0,8.0,83,0.00,,,0.00,378,Wunderground v.1.15,2013-05-26 15:29:00,
2013-05-26 08:39:00,58.5,53.0,30.13,WNW,301,9.0,9.0,82,0.00,,,0.00,420,Wunderground v.1.15,2013-05-26 15:39:00,
2013-05-26 08:44:00,58.8,53.0,30.13,NW,316,10.0,10.0,81,0.00,,,0.00,431,Wunderground v.1.15,2013-05-26 15:44:00,
2013-05-26 08:54:00,59.3,52.8,30.13,NW,318,11.0,14.0,79,0.00,,,0.00,404,Wunderground v.1.15,2013-05-26 15:54:00,
2013-05-26 08:59:00,59.5,53.0,30.13,NW,312,11.0,11.0,79,0.00,,,0.00,450,Wunderground v.1.15,2013-05-26 15:59:00,
2013-05-26 09:09:00,59.9,53.4,30.13,WNW,295,9.0,9.0,79,0.00,,,0.00,513,Wunderground v.1.15,2013-05-26 16:09:00,
2013-05-26 09:14:00,60.2,53.3,30.13,WNW,292,7.0,9.0,78,0.00,,,0.00,503,Wunderground v.1.15,2013-05-26 16:14:00,
2013-05-26 09:24:00,60.7,53.8,30.13,West,272,8.0,8.0,78,0.00,,,0.00,438,Wunderground v.1.15,2013-05-26 16:24:00,
2013-05-26 09:29:00,60.8,54.9,30.13,SSW,213,6.0,6.0,81,0.00,,,0.00,461,Wunderground v.1.15,2013-05-26 16:29:00,
2013-05-26 09:34:00,60.3,54.4,30.14,WSW,243,6.0,6.0,81,0.00,,,0.00,585,Wunderground v.1.15,2013-05-26 16:34:00,
2013-05-26 09:44:00,60.6,55.4,30.14,SSW,213,6.0,6.0,83,0.00,,,0.00,596,Wunderground v.1.15,2013-05-26 16:44:00,
2013-05-26 09:49:00,60.7,55.2,30.13,SSW,213,6.0,6.0,82,0.00,,,0.00,629,Wunderground v.1.15,2013-05-26 16:49:00,
2013-05-26 09:59:00,59.4,54.6,30.13,WSW,247,8.0,8.0,84,0.00,,,0.00,657,Wunderground v.1.15,2013-05-26 16:59:00,
2013-05-26 10:09:00,59.2,54.4,30.13,WSW,248,9.0,9.0,84,0.00,,,0.00,707,Wunderground v.1.15,2013-05-26 17:09:00,
2013-05-26 10:19:00,59.6,54.8,30.13,WSW,256,9.0,9.0,84,0.00,,,0.00,717,Wunderground v.1.15,2013-05-26 17:19:00,
2013-05-26 10:29:00,59.7,54.9,30.13,WSW,253,9.0,10.0,84,0.00,,,0.00,724,Wunderground v.1.15,2013-05-26 17:29:00,
2013-05-26 10:39:00,60.0,54.8,30.13,WSW,251,9.0,9.0,83,0.00,,,0.00,759,Wunderground v.1.15,2013-05-26 17:39:00,
2013-05-26 10:44:00,60.2,55.0,30.13,West,263,9.0,9.0,83,0.00,,,0.00,756,Wunderground v.1.15,2013-05-26 17:44:00,
2013-05-26 10:49:00,60.2,55.0,30.13,WSW,249,9.0,9.0,83,0.00,,,0.00,650,Wunderground v.1.15,2013-05-26 17:49:00,
2013-05-26 10:54:00,60.2,55.0,30.13,West,264,9.0,13.0,83,0.00,,,0.00,744,Wunderground v.1.15,2013-05-26 17:54:00,
2013-05-26 10:59:00,60.2,55.3,30.13,WSW,243,10.0,10.0,84,0.00,,,0.00,759,Wunderground v.1.15,2013-05-26 17:59:00,
2013-05-26 11:09:00,59.9,55.4,30.13,WSW,247,11.0,11.0,85,0.00,,,0.00,780,Wunderground v.1.15,2013-05-26 18:09:00,
2013-05-26 11:14:00,59.9,55.4,30.13,West,259,10.0,15.0,85,0.00,,,0.00,830,Wunderground v.1.15,2013-05-26 18:14:00,
2013-05-26 11:24:00,59.4,55.2,30.13,WSW,254,11.0,11.0,86,0.00,,,0.00,835,Wunderground v.1.15,2013-05-26 18:24:00,
2013-05-26 11:30:00,59.6,55.4,30.13,West,269,12.0,12.0,86,0.00,,,0.00,844,Wunderground v.1.15,2013-05-26 18:30:00,
2013-05-26 11:39:00,59.7,55.2,30.13,WSW,257,10.0,12.0,85,0.00,,,0.00,856,Wunderground v.1.15,2013-05-26 18:39:00,
2013-05-26 11:44:00,59.4,55.2,30.13,WSW,241,10.0,12.0,86,0.00,,,0.00,872,Wunderground v.1.15,2013-05-26 18:44:00,
2013-05-26 11:50:00,59.4,55.2,30.13,WSW,257,11.0,14.0,86,0.00,,,0.00,877,Wunderground v.1.15,2013-05-26 18:50:00,
2013-05-26 11:59:00,60.1,55.9,30.13,West,280,10.0,14.0,86,0.00,,,0.00,891,Wunderground v.1.15,2013-05-26 18:59:00,
2013-05-26 12:04:00,60.1,55.9,30.13,WSW,253,9.0,14.0,86,0.00,,,0.00,900,Wunderground v.1.15,2013-05-26 19:04:00,
2013-05-26 12:14:00,60.1,55.6,30.13,WSW,256,10.0,13.0,85,0.00,,,0.00,911,Wunderground v.1.15,2013-05-26 19:14:00,
2013-05-26 12:24:00,59.8,55.0,30.13,WSW,257,11.0,13.0,84,0.00,,,0.00,921,Wunderground v.1.15,2013-05-26 19:24:00,
2013-05-26 12:29:00,59.8,55.3,30.13,WSW,252,11.0,11.0,85,0.00,,,0.00,925,Wunderground v.1.15,2013-05-26 19:29:00,
2013-05-26 12:34:00,60.0,55.2,30.13,WSW,257,11.0,11.0,84,0.00,,,0.00,928,Wunderground v.1.15,2013-05-26 19:34:00,
2013-05-26 12:44:00,59.7,54.9,30.12,West,262,13.0,17.0,84,0.00,,,0.00,935,Wunderground v.1.15,2013-05-26 19:44:00,
2013-05-26 12:49:00,59.2,54.4,30.12,West,268,15.0,15.0,84,0.00,,,0.00,939,Wunderground v.1.15,2013-05-26 19:49:00,
2013-05-26 12:59:00,59.1,54.9,30.12,WSW,254,14.0,14.0,86,0.00,,,0.00,942,Wunderground v.1.15,2013-05-26 19:59:00,
2013-05-26 13:04:00,59.7,55.2,30.12,WSW,257,12.0,14.0,85,0.00,,,0.00,946,Wunderground v.1.15,2013-05-26 20:04:00,
2013-05-26 13:14:00,60.2,54.7,30.12,WSW,251,12.0,14.0,82,0.00,,,0.00,947,Wunderground v.1.15,2013-05-26 20:14:00,
2013-05-26 13:19:00,59.3,54.5,30.12,West,261,12.0,13.0,84,0.00,,,0.00,947,Wunderground v.1.15,2013-05-26 20:19:00,
2013-05-26 13:29:00,58.0,54.2,30.12,West,259,15.0,15.0,87,0.00,,,0.00,947,Wunderground v.1.15,2013-05-26 20:29:00,
2013-05-26 13:34:00,58.2,54.3,30.12,WSW,243,16.0,16.0,87,0.00,,,0.00,946,Wunderground v.1.15,2013-05-26 20:34:00,
2013-05-26 13:39:00,58.6,54.4,30.12,WSW,237,16.0,16.0,86,0.00,,,0.00,944,Wunderground v.1.15,2013-05-26 20:39:00,
2013-05-26 13:49:00,60.0,54.8,30.12,WSW,251,13.0,13.0,83,0.00,,,0.00,942,Wunderground v.1.15,2013-05-26 20:49:00,
2013-05-26 13:54:00,60.8,55.3,30.11,West,264,13.0,13.0,82,0.00,,,0.00,940,Wunderground v.1.15,2013-05-26 20:54:00,
2013-05-26 14:04:00,61.1,54.5,30.11,SSW,213,15.0,15.0,79,0.00,,,0.00,933,Wunderground v.1.15,2013-05-26 21:04:00,
2013-05-26 14:09:00,61.4,54.5,30.11,West,276,16.0,16.0,78,0.00,,,0.00,932,Wunderground v.1.15,2013-05-26 21:09:00,
2013-05-26 14:14:00,61.5,54.6,30.11,SSW,213,14.0,16.0,78,0.00,,,0.00,928,Wunderground v.1.15,2013-05-26 21:14:00,
2013-05-26 14:24:00,61.8,54.5,30.11,SSW,213,12.0,14.0,77,0.00,,,0.00,919,Wunderground v.1.15,2013-05-26 21:24:00,
2013-05-26 14:29:00,61.8,54.2,30.11,WNW,288,12.0,13.0,76,0.00,,,0.00,916,Wunderground v.1.15,2013-05-26 21:29:00,
2013-05-26 14:39:00,61.8,54.9,30.11,West,260,12.0,12.0,78,0.00,,,0.00,905,Wunderground v.1.15,2013-05-26 21:39:00,
2013-05-26 14:44:00,62.1,54.4,30.11,SSW,213,12.0,14.0,76,0.00,,,0.00,896,Wunderground v.1.15,2013-05-26 21:44:00,
2013-05-26 14:54:00,62.7,54.7,30.11,SSW,213,13.0,13.0,75,0.00,,,0.00,884,Wunderground v.1.15,2013-05-26 21:54:00,
2013-05-26 14:59:00,62.5,54.5,30.11,WSW,257,12.0,16.0,75,0.00,,,0.00,877,Wunderground v.1.15,2013-05-26 21:59:00,
2013-05-26 15:04:00,62.9,54.9,30.11,WSW,244,13.0,16.0,75,0.00,,,0.00,870,Wunderground v.1.15,2013-05-26 22:04:00,
2013-05-26 15:14:00,62.7,54.7,30.10,WSW,239,13.0,13.0,75,0.00,,,0.00,853,Wunderground v.1.15,2013-05-26 22:14:00,
2013-05-26 15:19:00,62.7,54.7,30.10,WNW,285,12.0,15.0,75,0.00,,,0.00,847,Wunderground v.1.15,2013-05-26 22:19:00,
2013-05-26 15:29:00,62.4,54.7,30.10,West,274,14.0,14.0,76,0.00,,,0.00,830,Wunderground v.1.15,2013-05-26 22:29:00,
2013-05-26 15:34:00,62.3,55.0,30.10,WSW,255,15.0,15.0,77,0.00,,,0.00,821,Wunderground v.1.15,2013-05-26 22:34:00,
2013-05-26 15:39:00,61.5,54.2,30.10,WNW,282,17.0,17.0,77,0.00,,,0.00,807,Wunderground v.1.15,2013-05-26 22:39:00,
2013-05-26 15:49:00,61.7,54.8,30.10,West,280,16.0,18.0,78,0.00,,,0.00,788,Wunderground v.1.15,2013-05-26 22:49:00,
2013-05-26 15:54:00,61.6,54.3,30.10,West,264,14.0,18.0,77,0.00,,,0.00,777,Wunderground v.1.15,2013-05-26 22:54:00,
2013-05-26 15:59:00,61.9,54.6,30.10,West,277,13.0,13.0,77,0.00,,,0.00,765,Wunderground v.1.15,2013-05-26 22:59:00,
2013-05-26 16:09:00,61.2,54.6,30.10,West,259,15.0,15.0,79,0.00,,,0.00,740,Wunderground v.1.15,2013-05-26 23:09:00,
2013-05-26 16:19:00,61.3,54.4,30.10,WSW,255,15.0,15.0,78,0.00,,,0.00,715,Wunderground v.1.15,2013-05-26 23:19:00,
2013-05-26 16:24:00,61.5,54.6,30.09,West,260,15.0,15.0,78,0.00,,,0.00,703,Wunderground v.1.15,2013-05-26 23:24:00,
2013-05-26 16:29:00,61.0,54.1,30.10,West,280,15.0,19.0,78,0.00,,,0.00,689,Wunderground v.1.15,2013-05-26 23:29:00,
2013-05-26 16:39:00,60.8,53.9,30.10,WSW,245,14.0,14.0,78,0.00,,,0.00,663,Wunderground v.1.15,2013-05-26 23:39:00,
2013-05-26 16:44:00,61.0,54.4,30.10,WSW,250,13.0,14.0,79,0.00,,,0.00,647,Wunderground v.1.15,2013-05-26 23:44:00,
2013-05-26 16:54:00,61.9,54.6,30.10,West,274,10.0,11.0,77,0.00,,,0.00,619,Wunderground v.1.15,2013-05-26 23:54:00,
2013-05-26 16:59:00,62.2,54.5,30.10,WSW,245,9.0,11.0,76,0.00,,,0.00,606,Wunderground v.1.15,2013-05-26 23:59:00,
2013-05-26 17:09:00,62.7,54.3,30.10,West,262,10.0,10.0,74,0.00,,,0.00,578,Wunderground v.1.15,2013-05-27 00:09:00,
2013-05-26 17:14:00,63.1,54.7,30.10,WNW,287,11.0,11.0,74,0.00,,,0.00,566,Wunderground v.1.15,2013-05-27 00:14:00,
2013-05-26 17:24:00,62.9,54.5,30.09,WNW,290,11.0,12.0,74,0.00,,,0.00,536,Wunderground v.1.15,2013-05-27 00:24:00,
2013-05-26 17:29:00,62.7,54.3,30.09,WNW,286,10.0,10.0,74,0.00,,,0.00,519,Wunderground v.1.15,2013-05-27 00:29:00,
2013-05-26 17:34:00,63.1,54.7,30.09,West,274,10.0,12.0,74,0.00,,,0.00,503,Wunderground v.1.15,2013-05-27 00:34:00,
2013-05-26 17:44:00,63.2,54.4,30.09,West,266,11.0,13.0,73,0.00,,,0.00,475,Wunderground v.1.15,2013-05-27 00:44:00,
2013-05-26 17:49:00,63.2,54.4,30.09,WNW,298,10.0,11.0,73,0.00,,,0.00,457,Wunderground v.1.15,2013-05-27 00:49:00,
2013-05-26 17:59:00,63.2,54.8,30.09,West,281,11.0,13.0,74,0.00,,,0.00,424,Wunderground v.1.15,2013-05-27 00:59:00,
2013-05-26 18:04:00,62.7,54.7,30.09,WNW,299,10.0,13.0,75,0.00,,,0.00,406,Wunderground v.1.15,2013-05-27 01:04:00,
2013-05-26 18:14:00,62.2,54.5,30.09,WNW,298,12.0,14.0,76,0.00,,,0.00,374,Wunderground v.1.15,2013-05-27 01:14:00,
2013-05-26 18:19:00,62.0,54.3,30.09,WNW,300,12.0,12.0,76,0.00,,,0.00,357,Wunderground v.1.15,2013-05-27 01:19:00,
2013-05-26 18:24:00,62.0,54.3,30.10,WNW,297,12.0,12.0,76,0.00,,,0.00,341,Wunderground v.1.15,2013-05-27 01:24:00,
2013-05-26 18:34:00,62.3,54.3,30.09,WNW,284,9.0,11.0,75,0.00,,,0.00,308,Wunderground v.1.15,2013-05-27 01:34:00,
2013-05-26 18:39:00,62.5,54.5,30.10,West,267,8.0,8.0,75,0.00,,,0.00,290,Wunderground v.1.15,2013-05-27 01:39:00,
2013-05-26 18:44:00,62.2,54.5,30.10,SW,228,6.0,8.0,76,0.00,,,0.00,272,Wunderground v.1.15,2013-05-27 01:44:00,
2013-05-26 18:54:00,60.8,54.6,30.10,SW,235,7.0,11.0,80,0.00,,,0.00,241,Wunderground v.1.15,2013-05-27 01:54:00,
2013-05-26 18:59:00,60.0,54.2,30.10,SW,228,9.0,9.0,81,0.00,,,0.00,221,Wunderground v.1.15,2013-05-27 01:59:00,
2013-05-26 19:04:00,59.8,54.3,30.10,WSW,239,8.0,9.0,82,0.00,,,0.00,209,Wunderground v.1.15,2013-05-27 02:04:00,
2013-05-26 19:14:00,59.8,54.0,30.10,WSW,250,8.0,8.0,81,0.00,,,0.00,165,Wunderground v.1.15,2013-05-27 02:14:00,
2013-05-26 19:19:00,59.8,54.0,30.10,West,270,9.0,9.0,81,0.00,,,0.00,146,Wunderground v.1.15,2013-05-27 02:19:00,
2013-05-26 19:29:00,59.9,53.7,30.11,West,268,9.0,9.0,80,0.00,,,0.00,109,Wunderground v.1.15,2013-05-27 02:29:00,
2013-05-26 19:34:00,60.2,53.7,30.11,WNW,282,7.0,9.0,79,0.00,,,0.00,93,Wunderground v.1.15,2013-05-27 02:34:00,
2013-05-26 19:39:00,60.4,53.5,30.10,West,267,6.0,6.0,78,0.00,,,0.00,77,Wunderground v.1.15,2013-05-27 02:39:00,
2013-05-26 19:49:00,60.5,53.6,30.10,WNW,283,5.0,7.0,78,0.00,,,0.00,51,Wunderground v.1.15,2013-05-27 02:49:00,
2013-05-26 19:54:00,60.4,53.9,30.10,West,272,4.0,7.0,79,0.00,,,0.00,40,Wunderground v.1.15,2013-05-27 02:54:00,
2013-05-26 20:05:00,59.2,54.0,30.11,SW,230,6.0,11.0,83,0.00,,,0.00,19,Wunderground v.1.15,2013-05-27 03:05:00,
2013-05-26 20:14:00,58.3,53.8,30.11,WSW,237,7.0,7.0,85,0.00,,,0.00,11,Wunderground v.1.15,2013-05-27 03:14:00,
2013-05-26 20:19:00,58.2,53.7,30.12,WSW,242,6.0,9.0,85,0.00,,,0.00,5,Wunderground v.1.15,2013-05-27 03:19:00,
2013-05-26 20:24:00,58.3,53.5,30.12,WSW,241,6.0,9.0,84,0.00,,,0.00,0,Wunderground v.1.15,2013-05-27 03:24:00,
2013-05-26 20:34:00,58.3,53.5,30.12,SW,225,5.0,7.0,84,0.00,,,0.00,0,Wunderground v.1.15,2013-05-27 03:34:00,
2013-05-26 20:39:00,58.1,53.3,30.13,WSW,245,5.0,7.0,84,0.00,,,0.00,0,Wunderground v.1.15,2013-05-27 03:39:00,
2013-05-26 20:49:00,58.2,53.1,30.13,West,261,4.0,6.0,83,0.00,,,0.00,0,Wunderground v.1.15,2013-05-27 03:49:00,
2013-05-26 20:54:00,58.4,52.9,30.13,WSW,255,4.0,6.0,82,0.00,,,0.00,0,Wunderground v.1.15,2013-05-27 03:54:00,
2013-05-26 21:04:00,58.4,52.9,30.13,WSW,253,2.0,3.0,82,0.00,,,0.00,0,Wunderground v.1.15,2013-05-27 04:04:00,
2013-05-26 21:09:00,58.3,52.8,30.13,West,264,1.0,3.0,82,0.00,,,0.00,0,Wunderground v.1.15,2013-05-27 04:09:00,
2013-05-26 21:14:00,58.4,52.3,30.13,NNW,335,3.0,10.0,80,0.00,,,0.00,0,Wunderground v.1.15,2013-05-27 04:14:00,
2013-05-26 21:19:00,58.8,51.6,30.13,NNW,330,9.0,11.0,77,0.00,,,0.00,0,Wunderground v.1.15,2013-05-27 04:19:00,
2013-05-26 21:24:00,59.3,51.7,30.14,NW,326,11.0,11.0,76,0.00,,,0.00,0,Wunderground v.1.15,2013-05-27 04:24:00,
2013-05-26 21:29:00,59.6,51.7,30.14,WNW,289,12.0,12.0,75,0.00,,,0.00,0,Wunderground v.1.15,2013-05-27 04:29:00,
2013-05-26 21:39:00,59.4,52.2,30.14,NW,307,8.0,8.0,77,0.00,,,0.00,0,Wunderground v.1.15,2013-05-27 04:39:00,
2013-05-26 21:44:00,59.1,52.2,30.14,WNW,284,6.0,8.0,78,0.00,,,0.00,0,Wunderground v.1.15,2013-05-27 04:44:00,
2013-05-26 21:54:00,58.7,51.2,30.15,NW,324,3.0,5.0,76,0.00,,,0.00,0,Wunderground v.1.15,2013-05-27 04:54:00,
2013-05-26 21:59:00,58.6,51.1,30.15,NW,326,5.0,5.0,76,0.00,,,0.00,0,Wunderground v.1.15,2013-05-27 04:59:00,
2013-05-26 22:09:00,58.5,51.0,30.15,NW,306,5.0,5.0,76,0.00,,,0.00,0,Wunderground v.1.15,2013-05-27 05:09:00,
2013-05-26 22:14:00,58.7,51.2,30.15,NW,311,5.0,6.0,76,0.00,,,0.00,0,Wunderground v.1.15,2013-05-27 05:14:00,
2013-05-26 22:19:00,58.6,51.1,30.15,NW,308,6.0,6.0,76,0.00,,,0.00,0,Wunderground v.1.15,2013-05-27 05:19:00,
2013-05-26 22:29:00,58.7,51.2,30.15,NW,308,7.0,7.0,76,0.00,,,0.00,0,Wunderground v.1.15,2013-05-27 05:29:00,
2013-05-26 22:34:00,58.6,51.4,30.16,WSW,255,7.0,7.0,77,0.00,,,0.00,0,Wunderground v.1.15,2013-05-27 05:34:00,
2013-05-26 22:44:00,58.0,51.5,30.16,WSW,248,4.0,6.0,79,0.00,,,0.00,0,Wunderground v.1.15,2013-05-27 05:44:00,
2013-05-26 22:49:00,57.7,51.2,30.16,WSW,247,3.0,4.0,79,0.00,,,0.00,0,Wunderground v.1.15,2013-05-27 05:49:00,
2013-05-26 22:59:00,57.7,51.2,30.16,WNW,290,5.0,5.0,79,0.00,,,0.00,0,Wunderground v.1.15,2013-05-27 05:59:00,
2013-05-26 23:04:00,57.7,51.6,30.16,West,274,6.0,8.0,80,0.00,,,0.00,0,Wunderground v.1.15,2013-05-27 06:04:00,
2013-05-26 23:14:00,57.3,51.5,30.16,WSW,257,7.0,9.0,81,0.00,,,0.00,0,Wunderground v.1.15,2013-05-27 06:14:00,
2013-05-26 23:19:00,56.9,51.8,30.16,WSW,258,7.0,7.0,83,0.00,,,0.00,0,Wunderground v.1.15,2013-05-27 06:19:00,
2013-05-26 23:29:00,56.3,51.5,30.16,West,276,8.0,8.0,84,0.00,,,0.00,0,Wunderground v.1.15,2013-05-27 06:29:00,
2013-05-26 23:34:00,56.2,51.7,30.16,West,276,7.0,8.0,85,0.00,,,0.00,0,Wunderground v.1.15,2013-05-27 06:34:00,
2013-05-26 23:39:00,56.2,51.7,30.15,West,273,5.0,5.0,85,0.00,,,0.00,0,Wunderground v.1.15,2013-05-27 06:39:00,
2013-05-26 23:49:00,56.2,51.7,30.16,West,279,4.0,4.0,85,0.00,,,0.00,0,Wunderground v.1.15,2013-05-27 06:49:00,
2013-05-26 23:54:00,56.1,51.7,30.15,West,278,4.0,7.0,85,0.00,,,0.00,0,Wunderground v.1.15,2013-05-27 06:54:00,